Shirley P. Settoon — WDF9252 — position and weather

sailwx.info

Track history (hours):
 
Tides and Currents Weather Stations Pressure Air Temp Water Temp Dewpoint Dewpoint Depression Visibility Wind Speed Wind Dir Waves Ship Positions

Shirley P. Settoon

Owner: Settoon Towing, LLC, Houma, LA. More information available from US FCC via Universal Licensing System and Coast Guard Vessel Documentation Center.

Last reported at 2015-Jan-30 06:33 UTC. Time now 2015-Jan-30 18:39 UTC.
Position N 29°57' W 090°03'.

Length 32 m.

Type: Towing. MMSI: 367503240.

Date/timePositionNaut miles runAvg speedWind from/ knotsBaromVisibWave heightAir tempDewpointWater temp
2015-Jan-30 06:33N 29°57' W 090°03'8 5.2
2015-Jan-30 05:06N 29°56' W 090°12'34 1.8
2015-Jan-29 10:34N 29°60' W 090°50'0 0.0
2015-Jan-29 09:33N 29°60' W 090°50'0 0.0
2015-Jan-29 08:32N 29°60' W 090°50'0 0.0
2015-Jan-29 07:29N 29°60' W 090°50'0 0.0
2015-Jan-29 06:33N 29°60' W 090°50'0 0.0
2015-Jan-29 05:33N 29°60' W 090°50'0 0.0
2015-Jan-29 04:30N 29°60' W 090°50'0 0.1
2015-Jan-29 03:21N 29°60' W 090°50'15 0.4
2015-Jan-27 10:20N 30°12' W 091°01'6 3.2
2015-Jan-27 08:33N 30°14' W 091°07'7 5.8
2015-Jan-27 07:20N 30°18' W 091°14'  
Track history (hours):
 
Tides and Currents Weather Stations Pressure Air Temp Water Temp Dewpoint Dewpoint Depression Visibility Wind Speed Wind Dir Waves Ship Positions

Shirley P. Settoon

Owner: Settoon Towing, LLC, Houma, LA. More information available from US FCC via Universal Licensing System and Coast Guard Vessel Documentation Center.

Last reported at 2015-Jan-30 06:33 UTC. Time now 2015-Jan-30 18:39 UTC.
Position N 29°57' W 090°03'.

Length 32 m.

Type: Towing. MMSI: 367503240.

Date/timePositionNaut miles runAvg speedWind from/ knotsBaromVisibWave heightAir tempDewpointWater temp
2015-Jan-30 06:33N 29°57' W 090°03'8 5.2
2015-Jan-30 05:06N 29°56' W 090°12'34 1.8
2015-Jan-29 10:34N 29°60' W 090°50'0 0.0
2015-Jan-29 09:33N 29°60' W 090°50'0 0.0
2015-Jan-29 08:32N 29°60' W 090°50'0 0.0
2015-Jan-29 07:29N 29°60' W 090°50'0 0.0
2015-Jan-29 06:33N 29°60' W 090°50'0 0.0
2015-Jan-29 05:33N 29°60' W 090°50'0 0.0
2015-Jan-29 04:30N 29°60' W 090°50'0 0.1
2015-Jan-29 03:21N 29°60' W 090°50'15 0.4
2015-Jan-27 10:20N 30°12' W 091°01'6 3.2
2015-Jan-27 08:33N 30°14' W 091°07'7 5.8
2015-Jan-27 07:20N 30°18' W 091°14'  

Dump ship's entire track history